sensor_id;sensor_type;location;lat;lon;timestamp;P1;durP1;ratioP1;P2;durP2;ratioP2
23175;SDS011;19910;42.652;23.332;2023-12-20T00:01:35;1.27;;;1.20;;
23175;SDS011;19910;42.652;23.332;2023-12-20T00:04:02;1.17;;;1.08;;
23175;SDS011;19910;42.652;23.332;2023-12-20T00:06:29;1.17;;;1.05;;
23175;SDS011;19910;42.652;23.332;2023-12-20T00:08:56;0.43;;;0.43;;
23175;SDS011;19910;42.652;23.332;2023-12-20T00:11:25;2.40;;;1.35;;
23175;SDS011;19910;42.652;23.332;2023-12-20T00:13:52;1.00;;;1.00;;
23175;SDS011;19910;42.652;23.332;2023-12-20T00:16:19;2.00;;;1.85;;
23175;SDS011;19910;42.652;23.332;2023-12-20T00:18:46;2.45;;;2.00;;
23175;SDS011;19910;42.652;23.332;2023-12-20T00:21:12;1.05;;;1.00;;
23175;SDS011;19910;42.652;23.332;2023-12-20T00:23:39;1.13;;;1.10;;
23175;SDS011;19910;42.652;23.332;2023-12-20T00:26:06;0.20;;;0.20;;
23175;SDS011;19910;42.652;23.332;2023-12-20T00:28:34;1.35;;;1.30;;
23175;SDS011;19910;42.652;23.332;2023-12-20T00:31:01;1.52;;;1.27;;
23175;SDS011;19910;42.652;23.332;2023-12-20T00:33:28;1.27;;;0.88;;
23175;SDS011;19910;42.652;23.332;2023-12-20T00:35:55;0.50;;;0.50;;
23175;SDS011;19910;42.652;23.332;2023-12-20T00:38:21;1.42;;;1.35;;
23175;SDS011;19910;42.652;23.332;2023-12-20T00:40:49;1.13;;;1.02;;
23175;SDS011;19910;42.652;23.332;2023-12-20T00:43:15;4.05;;;3.60;;
23175;SDS011;19910;42.652;23.332;2023-12-20T00:45:44;0.95;;;0.95;;
23175;SDS011;19910;42.652;23.332;2023-12-20T00:48:11;0.85;;;0.85;;
23175;SDS011;19910;42.652;23.332;2023-12-20T00:50:38;4.28;;;1.02;;
23175;SDS011;19910;42.652;23.332;2023-12-20T00:53:04;1.25;;;1.25;;
23175;SDS011;19910;42.652;23.332;2023-12-20T00:55:32;2.03;;;1.92;;
23175;SDS011;19910;42.652;23.332;2023-12-20T00:57:59;0.82;;;0.82;;
23175;SDS011;19910;42.652;23.332;2023-12-20T01:00:25;0.50;;;0.50;;
23175;SDS011;19910;42.652;23.332;2023-12-20T01:02:54;1.08;;;1.02;;
23175;SDS011;19910;42.652;23.332;2023-12-20T01:05:21;1.27;;;1.27;;
23175;SDS011;19910;42.652;23.332;2023-12-20T01:07:48;0.30;;;0.30;;
23175;SDS011;19910;42.652;23.332;2023-12-20T01:10:18;1.70;;;1.60;;
23175;SDS011;19910;42.652;23.332;2023-12-20T01:12:45;0.32;;;0.32;;
23175;SDS011;19910;42.652;23.332;2023-12-20T01:15:12;1.58;;;1.48;;
23175;SDS011;19910;42.652;23.332;2023-12-20T01:17:39;2.03;;;0.88;;
23175;SDS011;19910;42.652;23.332;2023-12-20T01:20:07;12.00;;;4.13;;
23175;SDS011;19910;42.652;23.332;2023-12-20T01:22:35;13.10;;;4.95;;
23175;SDS011;19910;42.652;23.332;2023-12-20T01:25:02;14.60;;;5.70;;
23175;SDS011;19910;42.652;23.332;2023-12-20T01:27:29;13.25;;;5.63;;
23175;SDS011;19910;42.652;23.332;2023-12-20T01:29:56;12.85;;;5.15;;
23175;SDS011;19910;42.652;23.332;2023-12-20T01:32:23;8.55;;;4.90;;
23175;SDS011;19910;42.652;23.332;2023-12-20T01:34:49;17.17;;;6.75;;
23175;SDS011;19910;42.652;23.332;2023-12-20T01:37:18;9.25;;;4.18;;
23175;SDS011;19910;42.652;23.332;2023-12-20T01:39:44;1.20;;;1.13;;
23175;SDS011;19910;42.652;23.332;2023-12-20T01:42:11;0.30;;;0.30;;
23175;SDS011;19910;42.652;23.332;2023-12-20T01:44:38;0.75;;;0.75;;
23175;SDS011;19910;42.652;23.332;2023-12-20T01:47:05;0.40;;;0.40;;
23175;SDS011;19910;42.652;23.332;2023-12-20T01:49:32;1.08;;;1.00;;
23175;SDS011;19910;42.652;23.332;2023-12-20T01:51:59;0.82;;;0.82;;
23175;SDS011;19910;42.652;23.332;2023-12-20T01:54:27;1.85;;;1.48;;
23175;SDS011;19910;42.652;23.332;2023-12-20T01:56:54;1.00;;;1.00;;
23175;SDS011;19910;42.652;23.332;2023-12-20T01:59:21;19.70;;;1.55;;
23175;SDS011;19910;42.652;23.332;2023-12-20T02:01:48;0.30;;;0.30;;
23175;SDS011;19910;42.652;23.332;2023-12-20T02:04:15;1.08;;;1.02;;
23175;SDS011;19910;42.652;23.332;2023-12-20T02:06:42;0.20;;;0.20;;
23175;SDS011;19910;42.652;23.332;2023-12-20T02:09:12;0.20;;;0.20;;
23175;SDS011;19910;42.652;23.332;2023-12-20T02:11:40;0.50;;;0.50;;
23175;SDS011;19910;42.652;23.332;2023-12-20T02:14:08;0.40;;;0.40;;
23175;SDS011;19910;42.652;23.332;2023-12-20T02:16:34;1.10;;;1.10;;
23175;SDS011;19910;42.652;23.332;2023-12-20T02:19:02;0.57;;;0.57;;
23175;SDS011;19910;42.652;23.332;2023-12-20T02:21:33;0.40;;;0.40;;
23175;SDS011;19910;42.652;23.332;2023-12-20T02:24:00;0.50;;;0.50;;
23175;SDS011;19910;42.652;23.332;2023-12-20T02:26:27;0.95;;;0.95;;
23175;SDS011;19910;42.652;23.332;2023-12-20T02:28:54;0.63;;;0.63;;
23175;SDS011;19910;42.652;23.332;2023-12-20T02:31:21;0.40;;;0.40;;
23175;SDS011;19910;42.652;23.332;2023-12-20T02:33:48;0.30;;;0.30;;
23175;SDS011;19910;42.652;23.332;2023-12-20T02:36:15;2.83;;;1.63;;
23175;SDS011;19910;42.652;23.332;2023-12-20T02:38:43;0.85;;;0.85;;
23175;SDS011;19910;42.652;23.332;2023-12-20T02:41:10;1.42;;;1.00;;
23175;SDS011;19910;42.652;23.332;2023-12-20T02:43:37;0.40;;;0.40;;
23175;SDS011;19910;42.652;23.332;2023-12-20T02:46:03;0.65;;;0.65;;
23175;SDS011;19910;42.652;23.332;2023-12-20T02:48:30;0.30;;;0.30;;
23175;SDS011;19910;42.652;23.332;2023-12-20T02:50:57;0.50;;;0.40;;
23175;SDS011;19910;42.652;23.332;2023-12-20T02:53:24;0.20;;;0.20;;
23175;SDS011;19910;42.652;23.332;2023-12-20T02:55:52;5.05;;;1.10;;
23175;SDS011;19910;42.652;23.332;2023-12-20T02:58:19;2.17;;;2.05;;
23175;SDS011;19910;42.652;23.332;2023-12-20T03:00:45;0.20;;;0.20;;
23175;SDS011;19910;42.652;23.332;2023-12-20T03:03:12;10.38;;;5.03;;
23175;SDS011;19910;42.652;23.332;2023-12-20T03:05:39;0.95;;;0.95;;
23175;SDS011;19910;42.652;23.332;2023-12-20T03:08:06;0.47;;;0.47;;
23175;SDS011;19910;42.652;23.332;2023-12-20T03:10:33;10.57;;;4.57;;
23175;SDS011;19910;42.652;23.332;2023-12-20T03:13:01;8.73;;;4.25;;
23175;SDS011;19910;42.652;23.332;2023-12-20T03:15:28;14.90;;;6.53;;
23175;SDS011;19910;42.652;23.332;2023-12-20T03:17:54;16.50;;;6.13;;
23175;SDS011;19910;42.652;23.332;2023-12-20T03:20:21;11.63;;;5.10;;
23175;SDS011;19910;42.652;23.332;2023-12-20T03:22:48;11.70;;;5.00;;
23175;SDS011;19910;42.652;23.332;2023-12-20T03:25:15;0.80;;;0.80;;
23175;SDS011;19910;42.652;23.332;2023-12-20T03:27:42;0.70;;;0.70;;
23175;SDS011;19910;42.652;23.332;2023-12-20T03:30:10;0.20;;;0.20;;
23175;SDS011;19910;42.652;23.332;2023-12-20T03:32:38;9.95;;;5.07;;
23175;SDS011;19910;42.652;23.332;2023-12-20T03:35:05;11.63;;;4.07;;
23175;SDS011;19910;42.652;23.332;2023-12-20T03:37:32;8.75;;;4.93;;
23175;SDS011;19910;42.652;23.332;2023-12-20T03:39:59;10.85;;;4.15;;
23175;SDS011;19910;42.652;23.332;2023-12-20T03:42:26;11.63;;;5.60;;
23175;SDS011;19910;42.652;23.332;2023-12-20T03:44:52;8.95;;;4.85;;
23175;SDS011;19910;42.652;23.332;2023-12-20T03:47:20;9.02;;;4.30;;
23175;SDS011;19910;42.652;23.332;2023-12-20T03:49:47;12.23;;;5.85;;
23175;SDS011;19910;42.652;23.332;2023-12-20T03:52:14;9.77;;;4.30;;
23175;SDS011;19910;42.652;23.332;2023-12-20T03:54:41;3.63;;;2.40;;
23175;SDS011;19910;42.652;23.332;2023-12-20T03:57:08;0.88;;;0.88;;
23175;SDS011;19910;42.652;23.332;2023-12-20T03:59:36;0.80;;;0.80;;
23175;SDS011;19910;42.652;23.332;2023-12-20T04:02:03;9.23;;;4.30;;
23175;SDS011;19910;42.652;23.332;2023-12-20T04:04:32;7.57;;;3.72;;
23175;SDS011;19910;42.652;23.332;2023-12-20T04:06:58;8.40;;;3.95;;
23175;SDS011;19910;42.652;23.332;2023-12-20T04:09:25;6.43;;;4.47;;
23175;SDS011;19910;42.652;23.332;2023-12-20T04:11:52;7.53;;;4.65;;
23175;SDS011;19910;42.652;23.332;2023-12-20T04:14:19;9.15;;;3.97;;
23175;SDS011;19910;42.652;23.332;2023-12-20T04:16:45;8.82;;;5.10;;
23175;SDS011;19910;42.652;23.332;2023-12-20T04:19:12;0.75;;;0.75;;
23175;SDS011;19910;42.652;23.332;2023-12-20T04:21:40;0.30;;;0.30;;
23175;SDS011;19910;42.652;23.332;2023-12-20T04:24:07;0.90;;;0.88;;
23175;SDS011;19910;42.652;23.332;2023-12-20T04:26:34;3.30;;;0.75;;
23175;SDS011;19910;42.652;23.332;2023-12-20T04:29:01;1.50;;;1.30;;
23175;SDS011;19910;42.652;23.332;2023-12-20T04:31:28;1.30;;;1.27;;
23175;SDS011;19910;42.652;23.332;2023-12-20T04:33:54;0.45;;;0.45;;
23175;SDS011;19910;42.652;23.332;2023-12-20T04:36:21;0.90;;;0.57;;
23175;SDS011;19910;42.652;23.332;2023-12-20T04:38:51;0.25;;;0.25;;
23175;SDS011;19910;42.652;23.332;2023-12-20T04:41:18;0.80;;;0.80;;
23175;SDS011;19910;42.652;23.332;2023-12-20T04:43:45;0.57;;;0.57;;
23175;SDS011;19910;42.652;23.332;2023-12-20T04:46:12;0.43;;;0.43;;
23175;SDS011;19910;42.652;23.332;2023-12-20T04:48:38;1.60;;;1.50;;
23175;SDS011;19910;42.652;23.332;2023-12-20T04:51:05;0.47;;;0.47;;
23175;SDS011;19910;42.652;23.332;2023-12-20T04:53:32;17.10;;;5.47;;
23175;SDS011;19910;42.652;23.332;2023-12-20T04:56:00;10.60;;;4.60;;
23175;SDS011;19910;42.652;23.332;2023-12-20T04:58:27;1.10;;;1.10;;
23175;SDS011;19910;42.652;23.332;2023-12-20T05:00:54;11.57;;;4.75;;
23175;SDS011;19910;42.652;23.332;2023-12-20T05:03:21;12.85;;;6.18;;
23175;SDS011;19910;42.652;23.332;2023-12-20T05:05:47;10.23;;;5.25;;
23175;SDS011;19910;42.652;23.332;2023-12-20T05:08:14;16.20;;;5.32;;
23175;SDS011;19910;42.652;23.332;2023-12-20T05:10:41;10.40;;;5.28;;
23175;SDS011;19910;42.652;23.332;2023-12-20T05:13:09;13.95;;;5.30;;
23175;SDS011;19910;42.652;23.332;2023-12-20T05:15:36;18.52;;;8.40;;
23175;SDS011;19910;42.652;23.332;2023-12-20T05:18:03;16.63;;;6.88;;
23175;SDS011;19910;42.652;23.332;2023-12-20T05:20:30;17.13;;;8.63;;
23175;SDS011;19910;42.652;23.332;2023-12-20T05:22:57;19.13;;;11.35;;
23175;SDS011;19910;42.652;23.332;2023-12-20T05:25:24;17.85;;;8.55;;
23175;SDS011;19910;42.652;23.332;2023-12-20T05:27:50;19.27;;;9.00;;
23175;SDS011;19910;42.652;23.332;2023-12-20T05:30:19;25.92;;;11.07;;
23175;SDS011;19910;42.652;23.332;2023-12-20T05:32:45;42.25;;;14.07;;
23175;SDS011;19910;42.652;23.332;2023-12-20T05:35:12;22.98;;;10.38;;
23175;SDS011;19910;42.652;23.332;2023-12-20T05:37:40;17.45;;;7.68;;
23175;SDS011;19910;42.652;23.332;2023-12-20T05:40:07;21.25;;;12.27;;
23175;SDS011;19910;42.652;23.332;2023-12-20T05:42:35;21.20;;;11.18;;
23175;SDS011;19910;42.652;23.332;2023-12-20T05:45:03;22.45;;;9.50;;
23175;SDS011;19910;42.652;23.332;2023-12-20T05:47:32;23.35;;;9.45;;
23175;SDS011;19910;42.652;23.332;2023-12-20T05:49:59;26.60;;;9.05;;
23175;SDS011;19910;42.652;23.332;2023-12-20T05:52:26;18.80;;;9.75;;
23175;SDS011;19910;42.652;23.332;2023-12-20T05:54:53;29.83;;;11.38;;
23175;SDS011;19910;42.652;23.332;2023-12-20T05:57:21;19.70;;;9.07;;
23175;SDS011;19910;42.652;23.332;2023-12-20T05:59:48;24.85;;;9.00;;
23175;SDS011;19910;42.652;23.332;2023-12-20T06:02:15;16.67;;;9.48;;
23175;SDS011;19910;42.652;23.332;2023-12-20T06:04:44;13.90;;;6.70;;
23175;SDS011;19910;42.652;23.332;2023-12-20T06:07:11;23.98;;;10.85;;
23175;SDS011;19910;42.652;23.332;2023-12-20T06:09:38;24.23;;;12.15;;
23175;SDS011;19910;42.652;23.332;2023-12-20T06:12:08;19.83;;;9.88;;
23175;SDS011;19910;42.652;23.332;2023-12-20T06:14:37;19.17;;;9.60;;
23175;SDS011;19910;42.652;23.332;2023-12-20T06:17:04;20.05;;;8.25;;
23175;SDS011;19910;42.652;23.332;2023-12-20T06:19:32;21.08;;;10.95;;
23175;SDS011;19910;42.652;23.332;2023-12-20T06:22:00;26.98;;;12.73;;
23175;SDS011;19910;42.652;23.332;2023-12-20T06:24:29;17.30;;;8.55;;
23175;SDS011;19910;42.652;23.332;2023-12-20T06:26:58;21.33;;;10.68;;
23175;SDS011;19910;42.652;23.332;2023-12-20T06:29:26;18.02;;;9.90;;
23175;SDS011;19910;42.652;23.332;2023-12-20T06:31:53;18.52;;;9.10;;
23175;SDS011;19910;42.652;23.332;2023-12-20T06:34:20;17.48;;;9.60;;
23175;SDS011;19910;42.652;23.332;2023-12-20T06:36:47;28.73;;;10.40;;
23175;SDS011;19910;42.652;23.332;2023-12-20T06:39:15;19.42;;;10.52;;
23175;SDS011;19910;42.652;23.332;2023-12-20T06:41:42;25.25;;;11.07;;
23175;SDS011;19910;42.652;23.332;2023-12-20T06:44:09;21.27;;;11.15;;
23175;SDS011;19910;42.652;23.332;2023-12-20T06:46:36;21.27;;;10.25;;
23175;SDS011;19910;42.652;23.332;2023-12-20T06:49:02;24.63;;;10.75;;
23175;SDS011;19910;42.652;23.332;2023-12-20T06:51:29;24.42;;;10.13;;
23175;SDS011;19910;42.652;23.332;2023-12-20T06:53:58;1.20;;;1.20;;
23175;SDS011;19910;42.652;23.332;2023-12-20T06:56:29;2.15;;;1.85;;
23175;SDS011;19910;42.652;23.332;2023-12-20T06:58:57;1.35;;;1.30;;
23175;SDS011;19910;42.652;23.332;2023-12-20T07:01:24;1.27;;;1.17;;
23175;SDS011;19910;42.652;23.332;2023-12-20T07:03:51;1.55;;;1.20;;
23175;SDS011;19910;42.652;23.332;2023-12-20T07:06:18;1.20;;;0.68;;
23175;SDS011;19910;42.652;23.332;2023-12-20T07:08:46;1.95;;;1.30;;
23175;SDS011;19910;42.652;23.332;2023-12-20T07:11:13;2.28;;;2.08;;
23175;SDS011;19910;42.652;23.332;2023-12-20T07:13:42;3.33;;;2.40;;
23175;SDS011;19910;42.652;23.332;2023-12-20T07:16:08;1.75;;;1.67;;
23175;SDS011;19910;42.652;23.332;2023-12-20T07:18:35;0.47;;;0.47;;
23175;SDS011;19910;42.652;23.332;2023-12-20T07:21:02;4.28;;;1.38;;
23175;SDS011;19910;42.652;23.332;2023-12-20T07:23:30;1.00;;;1.00;;
23175;SDS011;19910;42.652;23.332;2023-12-20T07:25:57;1.25;;;1.00;;
23175;SDS011;19910;42.652;23.332;2023-12-20T07:28:23;2.72;;;1.90;;
23175;SDS011;19910;42.652;23.332;2023-12-20T07:30:52;0.90;;;0.90;;
23175;SDS011;19910;42.652;23.332;2023-12-20T07:33:19;0.68;;;0.68;;
23175;SDS011;19910;42.652;23.332;2023-12-20T07:35:46;2.80;;;1.77;;
23175;SDS011;19910;42.652;23.332;2023-12-20T07:38:13;0.95;;;0.95;;
23175;SDS011;19910;42.652;23.332;2023-12-20T07:40:42;0.73;;;0.73;;
23175;SDS011;19910;42.652;23.332;2023-12-20T07:43:10;0.40;;;0.40;;
23175;SDS011;19910;42.652;23.332;2023-12-20T07:45:36;1.15;;;1.10;;
23175;SDS011;19910;42.652;23.332;2023-12-20T07:48:06;0.95;;;0.95;;
23175;SDS011;19910;42.652;23.332;2023-12-20T07:50:34;1.00;;;1.00;;
23175;SDS011;19910;42.652;23.332;2023-12-20T07:53:01;3.10;;;2.88;;
23175;SDS011;19910;42.652;23.332;2023-12-20T07:55:28;1.83;;;0.98;;
23175;SDS011;19910;42.652;23.332;2023-12-20T07:57:55;2.25;;;2.15;;
23175;SDS011;19910;42.652;23.332;2023-12-20T08:00:24;4.32;;;2.17;;
23175;SDS011;19910;42.652;23.332;2023-12-20T08:02:54;1.83;;;1.67;;
23175;SDS011;19910;42.652;23.332;2023-12-20T08:05:23;0.68;;;0.68;;
23175;SDS011;19910;42.652;23.332;2023-12-20T08:07:49;3.75;;;3.40;;
23175;SDS011;19910;42.652;23.332;2023-12-20T08:10:16;0.77;;;0.77;;
23175;SDS011;19910;42.652;23.332;2023-12-20T08:12:44;1.30;;;1.20;;
23175;SDS011;19910;42.652;23.332;2023-12-20T08:15:11;5.68;;;4.22;;
23175;SDS011;19910;42.652;23.332;2023-12-20T08:17:38;0.30;;;0.30;;
23175;SDS011;19910;42.652;23.332;2023-12-20T08:20:16;19.65;;;3.80;;
23175;SDS011;19910;42.652;23.332;2023-12-20T08:22:51;1.02;;;1.02;;
23175;SDS011;19910;42.652;23.332;2023-12-20T08:25:19;1.52;;;1.50;;
23175;SDS011;19910;42.652;23.332;2023-12-20T08:27:49;1.98;;;1.88;;
23175;SDS011;19910;42.652;23.332;2023-12-20T08:30:19;11.18;;;3.85;;
23175;SDS011;19910;42.652;23.332;2023-12-20T08:32:47;1.85;;;1.73;;
23175;SDS011;19910;42.652;23.332;2023-12-20T08:35:21;4.93;;;3.22;;
23175;SDS011;19910;42.652;23.332;2023-12-20T08:37:51;4.80;;;4.28;;
23175;SDS011;19910;42.652;23.332;2023-12-20T08:40:21;1.42;;;1.33;;
23175;SDS011;19910;42.652;23.332;2023-12-20T08:42:51;0.98;;;0.90;;
23175;SDS011;19910;42.652;23.332;2023-12-20T08:45:19;1.27;;;1.27;;
23175;SDS011;19910;42.652;23.332;2023-12-20T08:47:49;2.38;;;2.28;;
23175;SDS011;19910;42.652;23.332;2023-12-20T08:50:16;1.10;;;1.10;;
23175;SDS011;19910;42.652;23.332;2023-12-20T08:52:45;2.15;;;2.05;;
23175;SDS011;19910;42.652;23.332;2023-12-20T08:55:14;1.92;;;1.83;;
23175;SDS011;19910;42.652;23.332;2023-12-20T08:57:43;1.20;;;1.20;;
23175;SDS011;19910;42.652;23.332;2023-12-20T09:00:12;1.60;;;0.98;;
23175;SDS011;19910;42.652;23.332;2023-12-20T09:02:41;0.57;;;0.57;;
23175;SDS011;19910;42.652;23.332;2023-12-20T09:05:08;3.83;;;1.60;;
23175;SDS011;19910;42.652;23.332;2023-12-20T09:07:35;0.47;;;0.47;;
23175;SDS011;19910;42.652;23.332;2023-12-20T09:10:03;1.55;;;0.93;;
23175;SDS011;19910;42.652;23.332;2023-12-20T09:12:32;0.77;;;0.77;;
23175;SDS011;19910;42.652;23.332;2023-12-20T09:14:59;0.93;;;0.93;;
23175;SDS011;19910;42.652;23.332;2023-12-20T09:17:30;0.63;;;0.63;;
23175;SDS011;19910;42.652;23.332;2023-12-20T09:19:57;1.90;;;1.48;;
23175;SDS011;19910;42.652;23.332;2023-12-20T09:22:27;0.55;;;0.55;;
23175;SDS011;19910;42.652;23.332;2023-12-20T09:24:54;0.70;;;0.70;;
23175;SDS011;19910;42.652;23.332;2023-12-20T09:27:21;0.82;;;0.82;;
23175;SDS011;19910;42.652;23.332;2023-12-20T09:29:49;1.05;;;1.05;;
23175;SDS011;19910;42.652;23.332;2023-12-20T09:32:16;0.43;;;0.43;;
23175;SDS011;19910;42.652;23.332;2023-12-20T09:34:43;0.75;;;0.75;;
23175;SDS011;19910;42.652;23.332;2023-12-20T09:37:10;0.93;;;0.93;;
23175;SDS011;19910;42.652;23.332;2023-12-20T09:39:37;0.77;;;0.77;;
23175;SDS011;19910;42.652;23.332;2023-12-20T09:42:04;2.25;;;2.10;;
23175;SDS011;19910;42.652;23.332;2023-12-20T09:44:32;2.30;;;1.10;;
23175;SDS011;19910;42.652;23.332;2023-12-20T09:47:02;0.43;;;0.43;;
23175;SDS011;19910;42.652;23.332;2023-12-20T09:49:30;1.75;;;1.60;;
23175;SDS011;19910;42.652;23.332;2023-12-20T09:51:59;0.68;;;0.68;;
23175;SDS011;19910;42.652;23.332;2023-12-20T09:54:28;0.75;;;0.75;;
23175;SDS011;19910;42.652;23.332;2023-12-20T09:56:56;1.33;;;1.25;;
23175;SDS011;19910;42.652;23.332;2023-12-20T09:59:22;2.47;;;2.30;;
23175;SDS011;19910;42.652;23.332;2023-12-20T10:01:49;1.85;;;1.75;;
23175;SDS011;19910;42.652;23.332;2023-12-20T10:04:19;0.75;;;0.75;;
23175;SDS011;19910;42.652;23.332;2023-12-20T10:06:46;0.75;;;0.75;;
23175;SDS011;19910;42.652;23.332;2023-12-20T10:09:16;1.52;;;1.52;;
23175;SDS011;19910;42.652;23.332;2023-12-20T10:11:44;4.35;;;4.05;;
23175;SDS011;19910;42.652;23.332;2023-12-20T10:14:20;1.50;;;1.45;;
23175;SDS011;19910;42.652;23.332;2023-12-20T10:16:49;1.50;;;1.40;;
23175;SDS011;19910;42.652;23.332;2023-12-20T10:19:16;1.17;;;0.93;;
23175;SDS011;19910;42.652;23.332;2023-12-20T10:21:45;1.98;;;0.98;;
23175;SDS011;19910;42.652;23.332;2023-12-20T10:24:16;6.47;;;2.92;;
23175;SDS011;19910;42.652;23.332;2023-12-20T10:26:43;1.52;;;1.42;;
23175;SDS011;19910;42.652;23.332;2023-12-20T10:29:10;1.05;;;1.05;;
23175;SDS011;19910;42.652;23.332;2023-12-20T10:31:37;1.52;;;1.05;;
23175;SDS011;19910;42.652;23.332;2023-12-20T10:34:04;5.65;;;3.63;;
23175;SDS011;19910;42.652;23.332;2023-12-20T10:36:32;4.05;;;3.03;;
23175;SDS011;19910;42.652;23.332;2023-12-20T10:39:02;5.90;;;2.63;;
23175;SDS011;19910;42.652;23.332;2023-12-20T10:41:32;2.28;;;2.13;;
23175;SDS011;19910;42.652;23.332;2023-12-20T10:44:01;2.05;;;1.90;;
23175;SDS011;19910;42.652;23.332;2023-12-20T10:46:30;8.35;;;4.72;;
23175;SDS011;19910;42.652;23.332;2023-12-20T10:48:58;1.70;;;1.20;;
23175;SDS011;19910;42.652;23.332;2023-12-20T10:51:25;4.70;;;2.55;;
23175;SDS011;19910;42.652;23.332;2023-12-20T10:53:54;0.70;;;0.70;;
23175;SDS011;19910;42.652;23.332;2023-12-20T10:56:23;0.52;;;0.52;;
23175;SDS011;19910;42.652;23.332;2023-12-20T10:58:50;2.10;;;2.00;;
23175;SDS011;19910;42.652;23.332;2023-12-20T11:01:18;1.58;;;1.48;;
23175;SDS011;19910;42.652;23.332;2023-12-20T11:03:48;2.33;;;2.20;;
23175;SDS011;19910;42.652;23.332;2023-12-20T11:06:19;0.50;;;0.50;;
23175;SDS011;19910;42.652;23.332;2023-12-20T11:08:56;3.20;;;2.78;;
23175;SDS011;19910;42.652;23.332;2023-12-20T11:11:38;1.92;;;1.45;;
23175;SDS011;19910;42.652;23.332;2023-12-20T11:14:19;8.05;;;3.20;;
23175;SDS011;19910;42.652;23.332;2023-12-20T11:16:50;3.67;;;3.38;;
23175;SDS011;19910;42.652;23.332;2023-12-20T11:19:17;4.10;;;3.80;;
23175;SDS011;19910;42.652;23.332;2023-12-20T11:21:44;1.00;;;1.00;;
23175;SDS011;19910;42.652;23.332;2023-12-20T11:24:13;2.45;;;1.08;;
23175;SDS011;19910;42.652;23.332;2023-12-20T11:26:44;1.05;;;1.02;;
23175;SDS011;19910;42.652;23.332;2023-12-20T11:29:32;0.98;;;0.98;;
23175;SDS011;19910;42.652;23.332;2023-12-20T11:32:01;0.63;;;0.63;;
23175;SDS011;19910;42.652;23.332;2023-12-20T11:34:31;19.70;;;3.22;;
23175;SDS011;19910;42.652;23.332;2023-12-20T11:37:00;0.88;;;0.88;;
23175;SDS011;19910;42.652;23.332;2023-12-20T11:39:29;2.58;;;1.90;;
23175;SDS011;19910;42.652;23.332;2023-12-20T11:42:00;0.95;;;0.95;;
23175;SDS011;19910;42.652;23.332;2023-12-20T11:44:31;1.85;;;1.55;;
23175;SDS011;19910;42.652;23.332;2023-12-20T11:47:02;0.45;;;0.45;;
23175;SDS011;19910;42.652;23.332;2023-12-20T11:49:29;1.40;;;1.35;;
23175;SDS011;19910;42.652;23.332;2023-12-20T11:51:56;5.60;;;4.45;;
23175;SDS011;19910;42.652;23.332;2023-12-20T11:54:25;4.45;;;1.95;;
23175;SDS011;19910;42.652;23.332;2023-12-20T11:56:52;1.55;;;1.45;;
23175;SDS011;19910;42.652;23.332;2023-12-20T11:59:21;1.77;;;1.67;;
23175;SDS011;19910;42.652;23.332;2023-12-20T12:01:48;0.30;;;0.30;;
23175;SDS011;19910;42.652;23.332;2023-12-20T12:04:16;0.32;;;0.32;;
23175;SDS011;19910;42.652;23.332;2023-12-20T12:06:43;1.35;;;1.25;;
23175;SDS011;19910;42.652;23.332;2023-12-20T12:09:11;3.50;;;2.05;;
23175;SDS011;19910;42.652;23.332;2023-12-20T12:11:38;1.17;;;0.95;;
23175;SDS011;19910;42.652;23.332;2023-12-20T12:14:05;0.50;;;0.50;;
23175;SDS011;19910;42.652;23.332;2023-12-20T12:16:34;0.68;;;0.68;;
23175;SDS011;19910;42.652;23.332;2023-12-20T12:19:01;2.28;;;2.10;;
23175;SDS011;19910;42.652;23.332;2023-12-20T12:21:29;1.15;;;0.93;;
23175;SDS011;19910;42.652;23.332;2023-12-20T12:24:06;2.42;;;1.77;;
23175;SDS011;19910;42.652;23.332;2023-12-20T12:26:34;0.93;;;0.93;;
23175;SDS011;19910;42.652;23.332;2023-12-20T12:29:01;3.70;;;1.75;;
23175;SDS011;19910;42.652;23.332;2023-12-20T12:31:27;3.03;;;2.72;;
23175;SDS011;19910;42.652;23.332;2023-12-20T12:33:57;2.60;;;2.40;;
23175;SDS011;19910;42.652;23.332;2023-12-20T12:36:24;1.33;;;1.25;;
23175;SDS011;19910;42.652;23.332;2023-12-20T12:38:51;2.22;;;2.03;;
23175;SDS011;19910;42.652;23.332;2023-12-20T12:41:18;0.80;;;0.80;;
23175;SDS011;19910;42.652;23.332;2023-12-20T12:43:45;0.65;;;0.65;;
23175;SDS011;19910;42.652;23.332;2023-12-20T12:46:15;4.88;;;3.63;;
23175;SDS011;19910;42.652;23.332;2023-12-20T12:48:59;2.60;;;2.38;;
23175;SDS011;19910;42.652;23.332;2023-12-20T12:51:26;7.13;;;2.72;;
23175;SDS011;19910;42.652;23.332;2023-12-20T12:53:53;15.70;;;5.45;;
23175;SDS011;19910;42.652;23.332;2023-12-20T12:56:20;1.10;;;1.00;;
23175;SDS011;19910;42.652;23.332;2023-12-20T12:58:48;1.25;;;0.80;;
23175;SDS011;19910;42.652;23.332;2023-12-20T13:01:15;2.65;;;2.03;;
23175;SDS011;19910;42.652;23.332;2023-12-20T13:03:42;0.30;;;0.30;;
23175;SDS011;19910;42.652;23.332;2023-12-20T13:06:10;1.08;;;0.93;;
23175;SDS011;19910;42.652;23.332;2023-12-20T13:08:37;1.92;;;1.83;;
23175;SDS011;19910;42.652;23.332;2023-12-20T13:11:05;1.27;;;1.27;;
23175;SDS011;19910;42.652;23.332;2023-12-20T13:13:32;3.75;;;3.42;;
23175;SDS011;19910;42.652;23.332;2023-12-20T13:15:59;2.67;;;1.48;;
23175;SDS011;19910;42.652;23.332;2023-12-20T13:18:26;1.27;;;1.17;;
23175;SDS011;19910;42.652;23.332;2023-12-20T13:20:53;1.02;;;1.02;;
23175;SDS011;19910;42.652;23.332;2023-12-20T13:23:22;1.50;;;1.40;;
23175;SDS011;19910;42.652;23.332;2023-12-20T13:25:49;6.05;;;3.53;;
23175;SDS011;19910;42.652;23.332;2023-12-20T13:28:16;3.30;;;3.08;;
23175;SDS011;19910;42.652;23.332;2023-12-20T13:30:42;2.17;;;1.60;;
23175;SDS011;19910;42.652;23.332;2023-12-20T13:33:10;2.03;;;1.48;;
23175;SDS011;19910;42.652;23.332;2023-12-20T13:35:38;0.50;;;0.50;;
23175;SDS011;19910;42.652;23.332;2023-12-20T13:38:04;3.60;;;3.30;;
23175;SDS011;19910;42.652;23.332;2023-12-20T13:40:34;1.25;;;1.25;;
23175;SDS011;19910;42.652;23.332;2023-12-20T13:43:01;1.08;;;1.08;;
23175;SDS011;19910;42.652;23.332;2023-12-20T13:45:29;2.55;;;2.38;;
23175;SDS011;19910;42.652;23.332;2023-12-20T13:47:55;2.55;;;2.35;;
23175;SDS011;19910;42.652;23.332;2023-12-20T13:50:24;0.45;;;0.45;;
23175;SDS011;19910;42.652;23.332;2023-12-20T13:52:51;1.40;;;0.68;;
23175;SDS011;19910;42.652;23.332;2023-12-20T13:55:19;1.02;;;1.02;;
23175;SDS011;19910;42.652;23.332;2023-12-20T13:57:52;1.02;;;1.02;;
23175;SDS011;19910;42.652;23.332;2023-12-20T14:00:19;1.92;;;1.83;;
23175;SDS011;19910;42.652;23.332;2023-12-20T14:02:46;1.83;;;1.67;;
23175;SDS011;19910;42.652;23.332;2023-12-20T14:05:13;5.57;;;3.03;;
23175;SDS011;19910;42.652;23.332;2023-12-20T14:07:42;0.90;;;0.90;;
23175;SDS011;19910;42.652;23.332;2023-12-20T14:10:11;1.80;;;1.70;;
23175;SDS011;19910;42.652;23.332;2023-12-20T14:12:38;1.98;;;1.88;;
23175;SDS011;19910;42.652;23.332;2023-12-20T14:15:08;3.35;;;0.85;;
23175;SDS011;19910;42.652;23.332;2023-12-20T14:17:36;1.48;;;1.38;;
23175;SDS011;19910;42.652;23.332;2023-12-20T14:20:03;1.08;;;1.08;;
23175;SDS011;19910;42.652;23.332;2023-12-20T14:22:31;0.20;;;0.20;;
23175;SDS011;19910;42.652;23.332;2023-12-20T14:24:58;0.63;;;0.63;;
23175;SDS011;19910;42.652;23.332;2023-12-20T14:27:26;0.70;;;0.70;;
23175;SDS011;19910;42.652;23.332;2023-12-20T14:29:53;2.25;;;2.05;;
23175;SDS011;19910;42.652;23.332;2023-12-20T14:32:22;0.20;;;0.20;;
23175;SDS011;19910;42.652;23.332;2023-12-20T14:34:51;1.23;;;1.10;;